createdAt,value
2022-09-21T00:01:10.370Z,6.93
2022-09-21T00:03:37.922Z,8.38
2022-09-21T00:06:06.566Z,7.10
2022-09-21T00:08:33.933Z,8.90
2022-09-21T00:11:01.603Z,7.78
2022-09-21T00:13:29.191Z,9.05
2022-09-21T00:15:56.659Z,7.20
2022-09-21T00:18:24.228Z,9.65
2022-09-21T00:20:52.742Z,6.38
2022-09-21T00:23:20.372Z,11.10
2022-09-21T00:25:47.633Z,5.68
2022-09-21T00:28:14.886Z,6.72
2022-09-21T00:30:42.365Z,10.63
2022-09-21T00:33:09.668Z,11.90
2022-09-21T00:35:37.892Z,6.30
2022-09-21T00:38:05.157Z,6.45
2022-09-21T00:40:32.450Z,5.68
2022-09-21T00:43:16.258Z,10.65
2022-09-21T00:45:44.263Z,8.57
2022-09-21T00:48:11.553Z,10.68
2022-09-21T00:50:41.191Z,6.18
2022-09-21T00:53:08.541Z,8.50
2022-09-21T00:55:57.420Z,5.63
2022-09-21T00:58:37.759Z,8.88
2022-09-21T01:01:05.142Z,7.22
2022-09-21T01:03:32.542Z,8.90
2022-09-21T01:06:00.024Z,5.50
2022-09-21T01:08:27.335Z,9.95
2022-09-21T01:11:07.699Z,10.35
2022-09-21T01:13:43.046Z,8.82
2022-09-21T01:16:26.649Z,9.65
2022-09-21T01:19:07.330Z,10.82
2022-09-21T01:21:45.288Z,10.73
2022-09-21T01:24:37.523Z,8.05
2022-09-21T01:27:04.828Z,6.05
2022-09-21T01:29:55.679Z,5.75
2022-09-21T01:32:26.370Z,8.88
2022-09-21T01:35:14.074Z,6.05
2022-09-21T01:37:50.988Z,6.93
2022-09-21T01:40:46.548Z,7.30
2022-09-21T01:43:15.783Z,7.25
2022-09-21T01:45:46.214Z,6.53
2022-09-21T01:48:13.644Z,7.75
2022-09-21T01:50:44.583Z,8.45
2022-09-21T01:53:16.544Z,7.18
2022-09-21T01:56:08.604Z,9.45
2022-09-21T01:59:17.019Z,11.68
2022-09-21T02:01:47.587Z,8.15
2022-09-21T02:04:14.931Z,11.13
2022-09-21T02:06:43.840Z,6.35
2022-09-21T02:09:11.341Z,11.00
2022-09-21T02:11:44.996Z,7.47
2022-09-21T02:14:13.898Z,5.78
2022-09-21T02:16:55.346Z,8.48
2022-09-21T02:19:37.366Z,10.02
2022-09-21T02:22:06.031Z,9.65
2022-09-21T02:24:51.197Z,9.65
2022-09-21T02:27:30.441Z,10.05
2022-09-21T02:30:14.412Z,10.80
2022-09-21T02:32:51.409Z,7.75
2022-09-21T02:35:27.114Z,8.23
2022-09-21T02:37:56.765Z,7.07
2022-09-21T02:40:29.827Z,8.93
2022-09-21T02:43:30.817Z,11.02
2022-09-21T02:46:00.708Z,8.68
2022-09-21T02:48:36.994Z,9.90
2022-09-21T02:51:16.682Z,7.13
2022-09-21T02:53:44.746Z,8.07
2022-09-21T02:56:12.240Z,9.98
2022-09-21T02:58:42.159Z,8.35
2022-09-21T03:01:11.196Z,11.80
2022-09-21T03:03:38.749Z,7.22
2022-09-21T03:06:06.256Z,7.32
2022-09-21T03:08:33.550Z,9.35
2022-09-21T03:11:01.009Z,7.57
2022-09-21T03:13:28.320Z,9.07
2022-09-21T03:16:00.444Z,9.82
2022-09-21T03:18:27.878Z,8.20
2022-09-21T03:20:55.330Z,9.98
2022-09-21T03:23:22.615Z,8.57
2022-09-21T03:25:49.923Z,9.13
2022-09-21T03:28:17.203Z,10.00
2022-09-21T03:30:44.715Z,7.75
2022-09-21T03:33:13.079Z,10.32
2022-09-21T03:35:40.729Z,10.27
2022-09-21T03:38:08.239Z,8.25
2022-09-21T03:40:35.653Z,10.15
2022-09-21T03:43:03.234Z,6.18
2022-09-21T03:45:30.529Z,9.32
2022-09-21T03:47:58.434Z,7.38
2022-09-21T03:50:26.531Z,7.22
2022-09-21T03:52:53.894Z,10.45
2022-09-21T03:55:21.407Z,12.10
2022-09-21T03:57:48.733Z,7.05
2022-09-21T04:00:16.154Z,7.90
2022-09-21T04:02:43.734Z,5.90
2022-09-21T04:05:12.266Z,7.00
2022-09-21T04:07:39.688Z,7.88
2022-09-21T04:10:07.933Z,9.25
2022-09-21T04:12:36.341Z,7.25
2022-09-21T04:15:07.445Z,6.35
2022-09-21T04:17:34.939Z,9.27
2022-09-21T04:20:02.543Z,8.18
2022-09-21T04:22:30.272Z,14.70
2022-09-21T04:24:57.750Z,11.75
2022-09-21T04:27:25.050Z,10.15
2022-09-21T04:29:52.452Z,9.10
2022-09-21T04:32:19.807Z,11.35
2022-09-21T04:34:47.506Z,11.13
2022-09-21T04:37:14.802Z,8.43
2022-09-21T04:39:42.119Z,13.35
2022-09-21T04:42:09.789Z,10.75
2022-09-21T04:44:37.165Z,12.30
2022-09-21T04:47:04.580Z,13.63
2022-09-21T04:49:31.895Z,8.45
2022-09-21T04:51:59.333Z,11.45
2022-09-21T04:54:27.073Z,12.23
2022-09-21T04:56:54.348Z,9.18
2022-09-21T04:59:21.747Z,9.88
2022-09-21T05:01:49.072Z,16.92
2022-09-21T05:04:16.363Z,9.15
2022-09-21T05:06:43.715Z,11.50
2022-09-21T05:09:29.723Z,10.35
2022-09-21T05:11:57.079Z,13.48
2022-09-21T05:14:24.425Z,9.30
2022-09-21T05:16:51.718Z,12.38
2022-09-21T05:19:19.212Z,8.85
2022-09-21T05:21:46.530Z,10.43
2022-09-21T05:24:13.948Z,15.75
2022-09-21T05:26:41.726Z,10.05
2022-09-21T05:29:09.316Z,12.38
2022-09-21T05:31:44.593Z,12.45
2022-09-21T05:34:45.548Z,13.02
2022-09-21T05:37:49.777Z,13.88
2022-09-21T05:40:17.566Z,15.35
2022-09-21T05:42:45.144Z,14.15
2022-09-21T05:45:23.011Z,13.63
2022-09-21T05:47:54.440Z,11.73
2022-09-21T05:50:36.959Z,13.45
2022-09-21T05:53:11.805Z,12.23
2022-09-21T05:55:52.362Z,9.13
2022-09-21T05:58:28.325Z,10.98
2022-09-21T06:01:20.991Z,10.55
2022-09-21T06:03:50.127Z,14.38
2022-09-21T06:06:18.212Z,12.63
2022-09-21T06:08:45.480Z,13.75
2022-09-21T06:11:13.127Z,17.77
2022-09-21T06:13:41.704Z,17.80
2022-09-21T06:16:09.045Z,19.58
2022-09-21T06:18:40.263Z,19.35
2022-09-21T06:21:07.663Z,22.77
2022-09-21T06:23:35.200Z,15.15
2022-09-21T06:26:02.480Z,18.80
2022-09-21T06:28:29.903Z,12.95
2022-09-21T06:30:58.060Z,11.30
2022-09-21T06:33:25.652Z,14.10
2022-09-21T06:36:00.152Z,11.15
2022-09-21T06:38:28.088Z,9.98
2022-09-21T06:40:55.638Z,11.52
2022-09-21T06:43:22.940Z,9.02
2022-09-21T06:45:57.610Z,14.35
2022-09-21T06:48:25.873Z,16.30
2022-09-21T06:51:00.150Z,10.38
2022-09-21T06:53:28.140Z,12.73
2022-09-21T06:56:01.796Z,11.52
2022-09-21T06:58:30.311Z,11.55
2022-09-21T07:00:57.749Z,17.30
2022-09-21T07:03:25.421Z,12.45
2022-09-21T07:05:52.777Z,16.45
2022-09-21T07:11:07.555Z,9.35
2022-09-21T07:13:35.584Z,9.52
2022-09-21T07:16:07.158Z,9.27
2022-09-21T07:18:42.673Z,10.93
2022-09-21T07:21:11.057Z,8.98
2022-09-21T07:23:38.454Z,12.25
2022-09-21T07:26:08.152Z,12.35
2022-09-21T07:28:35.805Z,9.70
2022-09-21T07:31:16.459Z,7.50
2022-09-21T07:33:44.544Z,10.13
2022-09-21T07:36:13.087Z,9.43
2022-09-21T07:38:41.824Z,9.68
2022-09-21T07:41:10.304Z,7.63
2022-09-21T07:43:39.690Z,7.60
2022-09-21T07:46:08.049Z,8.13
2022-09-21T07:48:35.374Z,5.50
2022-09-21T07:51:06.503Z,5.60
2022-09-21T07:53:34.636Z,11.40
2022-09-21T07:56:03.580Z,5.47
2022-09-21T07:58:49.730Z,9.27
2022-09-21T08:01:17.839Z,7.82
2022-09-21T08:03:45.244Z,9.45
2022-09-21T08:06:12.523Z,6.45
2022-09-21T08:08:41.643Z,7.47
2022-09-21T08:11:09.146Z,5.70
2022-09-21T08:13:36.429Z,7.53
2022-09-21T08:16:03.954Z,7.03
2022-09-21T08:18:31.266Z,6.68
2022-09-21T08:20:59.619Z,4.88
2022-09-21T08:23:29.008Z,10.27
2022-09-21T08:26:03.086Z,5.20
2022-09-21T08:28:31.209Z,4.45
2022-09-21T08:31:02.664Z,7.95
2022-09-21T08:33:30.107Z,5.70
2022-09-21T08:35:58.950Z,3.72
2022-09-21T08:38:26.873Z,6.32
2022-09-21T08:40:54.219Z,5.25
2022-09-21T08:43:42.182Z,6.47
2022-09-21T08:46:23.467Z,3.55
2022-09-21T08:48:56.519Z,9.68
2022-09-21T08:51:26.823Z,7.53
2022-09-21T08:53:56.448Z,4.60
2022-09-21T08:56:32.862Z,5.90
2022-09-21T08:59:13.373Z,9.05
2022-09-21T09:02:03.305Z,5.82
2022-09-21T09:05:01.129Z,3.33
2022-09-21T09:07:49.809Z,3.47
2022-09-21T09:10:45.288Z,2.13
2022-09-21T09:13:20.060Z,6.75
2022-09-21T09:15:56.253Z,3.50
2022-09-21T09:18:25.341Z,3.97
2022-09-21T09:20:58.698Z,5.60
2022-09-21T09:23:33.478Z,3.90
2022-09-21T09:26:04.896Z,4.97
2022-09-21T09:28:59.242Z,6.70
2022-09-21T09:31:37.470Z,4.75
2022-09-21T09:34:25.003Z,5.25
2022-09-21T09:36:59.169Z,7.25
2022-09-21T09:39:28.628Z,4.60
2022-09-21T09:42:04.770Z,2.85
2022-09-21T09:44:45.902Z,2.50
2022-09-21T09:47:25.211Z,4.03
2022-09-21T09:50:18.426Z,4.57
2022-09-21T09:52:46.379Z,4.93
2022-09-21T09:55:25.751Z,4.32
2022-09-21T09:57:55.200Z,3.33
2022-09-21T10:00:22.708Z,4.15
2022-09-21T10:02:50.858Z,5.13
2022-09-21T10:05:38.544Z,2.22
2022-09-21T10:08:06.506Z,3.97
2022-09-21T10:10:34.918Z,3.83
2022-09-21T10:13:13.089Z,4.60
2022-09-21T10:15:59.798Z,2.55
2022-09-21T10:18:39.138Z,9.75
2022-09-21T10:21:08.052Z,6.57
2022-09-21T10:23:36.507Z,6.47
2022-09-21T10:26:11.551Z,3.22
2022-09-21T10:28:38.864Z,4.05
2022-09-21T10:31:32.475Z,2.42
2022-09-21T10:34:15.941Z,4.68
2022-09-21T10:36:51.662Z,2.72
2022-09-21T10:39:30.111Z,3.67
2022-09-21T10:42:04.611Z,3.50
2022-09-21T10:44:43.401Z,2.85
2022-09-21T10:47:23.775Z,10.40
2022-09-21T10:49:53.783Z,5.13
2022-09-21T10:52:25.538Z,4.60
2022-09-21T10:54:55.100Z,3.08
2022-09-21T10:57:24.008Z,2.85
2022-09-21T10:59:51.438Z,3.40
2022-09-21T11:02:26.835Z,3.63
2022-09-21T11:04:57.406Z,8.95
2022-09-21T11:07:56.415Z,5.90
2022-09-21T11:10:40.682Z,5.15
2022-09-21T11:13:34.220Z,2.85
2022-09-21T11:16:14.246Z,4.32
2022-09-21T11:19:03.370Z,4.38
2022-09-21T11:21:33.991Z,6.40
2022-09-21T11:24:20.072Z,2.72
2022-09-21T11:26:56.218Z,1.98
2022-09-21T11:29:33.419Z,3.45
2022-09-21T11:32:20.233Z,2.92
2022-09-21T11:35:19.403Z,1.80
2022-09-21T11:37:50.993Z,4.50
2022-09-21T11:40:40.470Z,2.38
2022-09-21T11:43:33.079Z,3.15
2022-09-21T11:46:22.474Z,2.67
2022-09-21T11:49:08.384Z,2.85
2022-09-21T11:51:58.864Z,3.05
2022-09-21T11:54:44.946Z,1.75
2022-09-21T11:57:39.966Z,1.92
2022-09-21T12:00:15.349Z,4.28
2022-09-21T12:05:27.939Z,6.25
2022-09-21T12:08:14.802Z,2.63
2022-09-21T12:10:51.434Z,3.25
2022-09-21T12:13:31.290Z,5.25
2022-09-21T12:16:06.346Z,2.42
2022-09-21T12:19:09.621Z,4.20
2022-09-21T12:21:42.637Z,3.53
2022-09-21T12:24:31.223Z,1.63
2022-09-21T12:27:03.356Z,3.28
2022-09-21T12:29:44.538Z,3.45
2022-09-21T12:32:15.832Z,2.70
2022-09-21T12:34:46.457Z,1.60
2022-09-21T12:37:31.780Z,2.05
2022-09-21T12:40:25.126Z,1.90
2022-09-21T12:43:22.122Z,1.77
2022-09-21T12:46:28.924Z,2.65
2022-09-21T12:48:56.304Z,6.63
2022-09-21T12:51:36.735Z,1.65
2022-09-21T12:54:24.180Z,2.42
2022-09-21T12:57:29.823Z,2.22
2022-09-21T13:00:04.523Z,1.40
2022-09-21T13:02:58.365Z,2.40
2022-09-21T13:05:35.235Z,2.73
2022-09-21T13:08:11.127Z,1.95
2022-09-21T13:11:01.310Z,1.88
2022-09-21T13:13:45.163Z,3.30
2022-09-21T13:16:31.089Z,3.93
2022-09-21T13:19:02.977Z,5.05
2022-09-21T13:21:31.505Z,5.05
2022-09-21T13:24:06.253Z,2.42
2022-09-21T13:26:41.637Z,3.60
2022-09-21T13:29:18.997Z,3.08
2022-09-21T13:31:58.754Z,3.47
2022-09-21T13:34:36.712Z,2.72
2022-09-21T13:37:14.749Z,1.77
2022-09-21T13:39:48.228Z,3.53
2022-09-21T13:42:33.719Z,3.83
2022-09-21T13:45:19.222Z,3.40
2022-09-21T13:47:50.731Z,4.47
2022-09-21T13:50:25.112Z,2.63
2022-09-21T13:55:30.463Z,5.30
2022-09-21T13:58:06.328Z,2.97
2022-09-21T14:01:02.834Z,2.92
2022-09-21T14:03:38.539Z,5.70
2022-09-21T14:06:12.984Z,4.07
2022-09-21T14:11:31.781Z,3.92
2022-09-21T14:14:12.117Z,4.53
2022-09-21T14:16:39.997Z,1.20
2022-09-21T14:19:19.390Z,3.03
2022-09-21T14:22:05.519Z,2.15
2022-09-21T14:24:38.998Z,4.78
2022-09-21T14:27:28.008Z,3.40
2022-09-21T14:30:08.160Z,2.08
2022-09-21T14:32:42.424Z,2.65
2022-09-21T14:35:20.228Z,2.53
2022-09-21T14:37:56.107Z,7.35
2022-09-21T14:40:36.616Z,6.55
2022-09-21T14:43:08.093Z,4.40
2022-09-21T14:46:03.418Z,5.88
2022-09-21T14:48:52.366Z,1.73
2022-09-21T14:51:36.536Z,4.90
2022-09-21T14:54:09.717Z,4.53
2022-09-21T14:57:05.159Z,2.15
2022-09-21T14:59:58.899Z,3.05
2022-09-21T15:02:29.540Z,3.10
2022-09-21T15:05:12.034Z,2.08
2022-09-21T15:08:22.167Z,2.78
2022-09-21T15:11:22.670Z,2.92
2022-09-21T15:14:22.135Z,3.05
2022-09-21T15:16:51.022Z,1.83
2022-09-21T15:19:18.561Z,2.20
2022-09-21T15:21:51.083Z,2.08
2022-09-21T15:24:29.499Z,3.35
2022-09-21T15:27:17.613Z,2.45
2022-09-21T15:29:50.050Z,0.93
2022-09-21T15:32:35.595Z,3.35
2022-09-21T15:35:15.095Z,3.38
2022-09-21T15:37:42.500Z,3.42
2022-09-21T15:40:23.114Z,5.22
2022-09-21T15:43:20.719Z,4.90
2022-09-21T15:45:54.651Z,2.38
2022-09-21T15:48:23.226Z,2.88
2022-09-21T15:50:59.258Z,3.35
2022-09-21T15:53:48.601Z,2.10
2022-09-21T15:56:21.022Z,4.13
2022-09-21T15:58:49.919Z,4.40
2022-09-21T16:01:21.577Z,4.03
2022-09-21T16:03:51.881Z,3.45
2022-09-21T16:06:28.276Z,4.28
2022-09-21T16:08:55.757Z,6.68
2022-09-21T16:11:29.745Z,4.68
2022-09-21T16:14:23.497Z,2.38
2022-09-21T16:17:09.638Z,3.13
2022-09-21T16:19:45.021Z,4.10
2022-09-21T16:22:14.138Z,2.92
2022-09-21T16:24:45.502Z,2.10
2022-09-21T16:27:16.702Z,3.58
2022-09-21T16:29:45.575Z,2.33
2022-09-21T16:32:19.270Z,7.28
2022-09-21T16:34:51.816Z,3.00
2022-09-21T16:37:26.824Z,5.68
2022-09-21T16:39:58.256Z,4.40
2022-09-21T16:42:33.372Z,3.20
2022-09-21T16:45:00.762Z,3.53
2022-09-21T16:47:28.189Z,2.65
2022-09-21T16:50:01.571Z,5.05
2022-09-21T16:52:29.827Z,5.47
2022-09-21T16:54:58.679Z,4.53
2022-09-21T16:57:26.334Z,4.45
2022-09-21T16:59:53.657Z,5.80
2022-09-21T17:02:21.298Z,4.85
2022-09-21T17:04:48.685Z,3.15
2022-09-21T17:07:16.962Z,7.72
2022-09-21T17:09:47.746Z,9.38
2022-09-21T17:12:17.624Z,11.98
2022-09-21T17:14:47.051Z,3.58
2022-09-21T17:17:20.111Z,4.55
2022-09-21T17:19:49.965Z,6.32
2022-09-21T17:22:18.200Z,4.20
2022-09-21T17:24:50.789Z,3.28
2022-09-21T17:27:21.174Z,13.65
2022-09-21T17:29:49.688Z,7.53
2022-09-21T17:32:21.596Z,6.95
2022-09-21T17:35:20.245Z,6.97
2022-09-21T17:37:47.691Z,4.82
2022-09-21T17:40:15.693Z,5.68
2022-09-21T17:42:46.547Z,7.07
2022-09-21T17:45:27.512Z,4.65
2022-09-21T17:47:55.098Z,3.58
2022-09-21T17:50:27.359Z,5.15
2022-09-21T17:53:14.132Z,8.90
2022-09-21T17:55:54.434Z,4.60
2022-09-21T17:58:41.943Z,10.88
2022-09-21T18:01:41.318Z,8.77
2022-09-21T18:04:10.935Z,7.80
2022-09-21T18:06:38.664Z,7.30
2022-09-21T18:09:06.487Z,5.80
2022-09-21T18:12:05.904Z,6.10
2022-09-21T18:14:42.134Z,6.28
2022-09-21T18:17:44.787Z,7.70
2022-09-21T18:20:18.360Z,10.07
2022-09-21T18:23:11.488Z,7.88
2022-09-21T18:25:47.852Z,5.40
2022-09-21T18:28:17.581Z,8.90
2022-09-21T18:30:49.859Z,7.13
2022-09-21T18:33:23.840Z,8.07
2022-09-21T18:36:01.687Z,8.65
2022-09-21T18:38:44.643Z,6.03
2022-09-21T18:41:20.398Z,7.13
2022-09-21T18:44:05.641Z,5.65
2022-09-21T18:46:39.668Z,8.27
2022-09-21T18:49:10.242Z,6.35
2022-09-21T18:51:59.605Z,8.02
2022-09-21T18:54:30.069Z,8.35
2022-09-21T18:56:57.815Z,10.25
2022-09-21T18:59:29.612Z,8.05
2022-09-21T19:01:59.737Z,6.50
2022-09-21T19:04:27.878Z,9.75
2022-09-21T19:06:59.896Z,6.70
2022-09-21T19:09:33.320Z,9.48
2022-09-21T19:12:12.053Z,6.13
2022-09-21T19:15:00.503Z,8.15
2022-09-21T19:17:39.950Z,7.20
2022-09-21T19:20:41.906Z,6.70
2022-09-21T19:23:51.566Z,6.22
2022-09-21T19:26:49.141Z,7.00
2022-09-21T19:29:38.296Z,9.13
2022-09-21T19:32:17.063Z,8.70
2022-09-21T19:34:44.628Z,7.28
2022-09-21T19:37:12.054Z,10.18
2022-09-21T19:39:39.695Z,12.35
2022-09-21T19:42:37.174Z,10.68
2022-09-21T19:45:12.869Z,9.45
2022-09-21T19:47:53.926Z,10.45
2022-09-21T19:50:35.285Z,10.52
2022-09-21T19:53:23.472Z,10.70
2022-09-21T19:56:09.822Z,11.18
2022-09-21T19:58:56.084Z,9.32
2022-09-21T20:01:23.484Z,8.52
2022-09-21T20:03:51.520Z,10.20
2022-09-21T20:06:19.892Z,9.68
2022-09-21T20:08:53.849Z,10.45
2022-09-21T20:11:41.386Z,13.95
2022-09-21T20:14:16.644Z,10.77
2022-09-21T20:16:54.519Z,8.18
2022-09-21T20:19:27.298Z,10.02
2022-09-21T20:22:15.671Z,9.07
2022-09-21T20:24:54.218Z,9.23
2022-09-21T20:27:42.464Z,7.15
2022-09-21T20:30:12.114Z,12.48
2022-09-21T20:32:40.745Z,11.18
2022-09-21T20:35:17.388Z,10.20
2022-09-21T20:37:44.950Z,8.82
2022-09-21T20:40:13.261Z,9.15
2022-09-21T20:42:41.184Z,19.13
2022-09-21T20:45:09.696Z,11.43
2022-09-21T20:47:37.032Z,10.63
2022-09-21T20:50:05.285Z,15.68
2022-09-21T20:52:33.938Z,12.05
2022-09-21T20:55:01.221Z,10.95
2022-09-21T20:57:28.540Z,9.70
2022-09-21T20:59:55.823Z,10.73
2022-09-21T21:02:23.129Z,9.65
2022-09-21T21:04:50.371Z,11.73
2022-09-21T21:07:17.672Z,12.73
2022-09-21T21:09:44.962Z,9.15
2022-09-21T21:12:13.097Z,9.23
2022-09-21T21:14:40.759Z,8.70
2022-09-21T21:17:08.179Z,10.13
2022-09-21T21:19:35.451Z,9.38
2022-09-21T21:22:02.737Z,8.90
2022-09-21T21:24:42.000Z,8.60
2022-09-21T21:27:17.442Z,9.35
2022-09-21T21:29:52.038Z,9.00
2022-09-21T21:32:21.255Z,11.77
2022-09-21T21:34:50.332Z,10.73
2022-09-21T21:37:18.428Z,10.30
2022-09-21T21:39:46.043Z,7.20
2022-09-21T21:42:13.381Z,8.13
2022-09-21T21:44:40.687Z,9.57
2022-09-21T21:47:27.870Z,10.70
2022-09-21T21:49:55.364Z,7.50
2022-09-21T21:52:23.119Z,8.05
2022-09-21T21:54:50.395Z,9.18
2022-09-21T21:57:17.746Z,7.85
2022-09-21T21:59:45.015Z,11.13
2022-09-21T22:02:12.378Z,9.38
2022-09-21T22:04:39.831Z,8.70
2022-09-21T22:07:07.131Z,9.52
2022-09-21T22:09:34.411Z,10.68
2022-09-21T22:12:02.507Z,9.25
2022-09-21T22:14:30.170Z,8.77
2022-09-21T22:16:58.926Z,10.73
2022-09-21T22:19:26.250Z,11.10
2022-09-21T22:21:54.757Z,12.05
2022-09-21T22:24:22.297Z,13.90
2022-09-21T22:26:49.669Z,9.65
2022-09-21T22:29:17.392Z,8.40
2022-09-21T22:31:46.898Z,10.82
2022-09-21T22:34:14.815Z,10.60
2022-09-21T22:36:43.785Z,8.98
2022-09-21T22:39:11.403Z,9.43
2022-09-21T22:41:40.197Z,10.98
2022-09-21T22:44:08.161Z,10.75
2022-09-21T22:46:35.712Z,7.30
2022-09-21T22:49:03.218Z,9.98
2022-09-21T22:51:30.635Z,12.75
2022-09-21T22:53:58.187Z,18.65
2022-09-21T22:56:26.792Z,11.43
2022-09-21T22:58:55.431Z,13.15
2022-09-21T23:01:30.602Z,10.05
2022-09-21T23:03:59.822Z,9.77
2022-09-21T23:06:31.805Z,15.15
2022-09-21T23:08:59.505Z,10.07
2022-09-21T23:11:28.711Z,10.10
2022-09-21T23:13:56.518Z,11.23
2022-09-21T23:16:24.824Z,11.50
2022-09-21T23:18:52.108Z,8.93
2022-09-21T23:21:21.171Z,10.00
2022-09-21T23:23:48.885Z,10.90
2022-09-21T23:26:24.101Z,10.07
2022-09-21T23:28:53.679Z,13.85
2022-09-21T23:31:21.163Z,11.27
2022-09-21T23:33:50.389Z,9.88
2022-09-21T23:36:22.904Z,9.07
2022-09-21T23:38:50.399Z,10.50
2022-09-21T23:41:19.476Z,11.38
2022-09-21T23:43:47.005Z,11.25
2022-09-21T23:46:17.494Z,9.10
2022-09-21T23:48:45.061Z,12.52
2022-09-21T23:51:12.437Z,8.55
2022-09-21T23:53:39.881Z,11.63
2022-09-21T23:56:07.987Z,11.05
2022-09-21T23:58:35.278Z,8.95
